Time;durP1;ratioP1;P1;durP2;ratioP2;P2;SDS_P1;SDS_P2;PMS_P1;PMS_P2;Temp;Humidity;BMP_temperature;BMP_pressure;BME280_temperature;BME280_humidity;BME280_pressure;Samples;Min_cycle;Max_cycle;Signal;HPM_P1;HPM_P2
2022/03/18 00:00:33;;;;;;;;;;;;;;;1.81;66.44;101667.56;3144052;28;19920;-70
2022/03/18 00:02:04;;;;;;;;;;;;;;;1.84;66.40;101667.63;3143746;28;19957;-73
2022/03/18 00:03:36;;;;;;;;;;;;;;;1.82;66.39;101669.28;3143727;28;20424;-73
2022/03/18 00:05:08;;;;;;;;;;;;;;;1.79;66.46;101664.06;3146928;28;20319;-72
2022/03/18 00:06:40;;;;;;;;;;;;;;;1.77;66.48;101665.72;3142213;28;19927;-73
2022/03/18 00:08:12;;;;;;;;;;;;;;;1.78;66.39;101667.50;3145798;28;20341;-73
2022/03/18 00:09:43;;;;;;;;;;;;;;;1.71;66.31;101665.59;3143192;28;20321;-72
2022/03/18 00:11:16;;;;;;;;;;;;;;;1.63;66.40;101673.16;3144234;28;19924;-72
2022/03/18 00:12:48;;;;;;;;;;;;;;;1.58;66.45;101685.91;3145086;28;19960;-73
2022/03/18 00:14:19;;;;;;;;;;;;;;;1.56;66.55;101684.13;3142191;28;20302;-73
2022/03/18 00:15:51;;;;;;;;;;;;;;;1.51;66.57;101691.75;3145789;28;20074;-73
2022/03/18 00:17:23;;;;;;;;;;;;;;;1.47;66.80;101682.22;3143872;28;19985;-73
2022/03/18 00:18:54;;;;;;;;;;;;;;;1.44;66.85;101687.28;3145625;28;20393;-73
2022/03/18 00:20:26;;;;;;;;;;;;;;;1.45;66.97;101683.00;3142734;28;19931;-72
2022/03/18 00:22:01;;;;;;;;;;;;;;;1.47;67.22;101686.50;3145386;28;19924;-72
2022/03/18 00:23:32;;;;;;;;;;;;;;;1.47;66.99;101684.78;3141954;28;20317;-72
2022/03/18 00:25:06;;;;;;;;;;;;;;;1.47;67.01;101681.34;3143547;28;19924;-73
2022/03/18 00:26:39;;;;;;;;;;;;;;;1.45;67.03;101678.78;3149605;28;19931;-72
2022/03/18 00:28:10;;;;;;;;;;;;;;;1.47;66.82;101682.22;3143628;28;19939;-73
2022/03/18 00:29:42;;;;;;;;;;;;;;;1.42;66.84;101668.44;3144926;28;19920;-72
2022/03/18 00:31:14;;;;;;;;;;;;;;;1.42;66.83;101678.72;3144213;28;20366;-74
2022/03/18 00:32:46;;;;;;;;;;;;;;;1.40;66.77;101674.38;3143395;28;19920;-72
2022/03/18 00:34:18;;;;;;;;;;;;;;;1.40;66.88;101674.38;3145992;28;20383;-73
2022/03/18 00:35:50;;;;;;;;;;;;;;;1.43;66.76;101672.72;3143592;28;19974;-73
2022/03/18 00:37:21;;;;;;;;;;;;;;;1.45;66.77;101671.06;3145107;28;19924;-73
2022/03/18 00:38:53;;;;;;;;;;;;;;;1.44;66.86;101660.75;3143354;28;19974;-73
2022/03/18 00:40:24;;;;;;;;;;;;;;;1.42;66.80;101668.44;3142285;28;20278;-73
2022/03/18 00:41:57;;;;;;;;;;;;;;;1.40;66.86;101669.22;3144528;28;19927;-73
2022/03/18 00:43:29;;;;;;;;;;;;;;;1.38;66.92;101670.88;3142012;28;19936;-74
2022/03/18 00:45:01;;;;;;;;;;;;;;;1.35;67.17;101676.81;3147371;28;19925;-73
2022/03/18 00:46:32;;;;;;;;;;;;;;;1.35;67.16;101675.09;3144113;28;19924;-74
2022/03/18 00:52:04;;;;;;;;;;;;;;;1.33;67.40;101670.78;3145992;28;19924;-73
2022/03/18 00:53:35;;;;;;;;;;;;;;;1.32;67.22;101671.63;3145589;28;19943;-74
2022/03/18 00:55:08;;;;;;;;;;;;;;;1.33;67.27;101670.78;3141737;28;19925;-74
2022/03/18 00:56:39;;;;;;;;;;;;;;;1.32;67.16;101675.03;3145160;28;20330;-73
2022/03/18 00:58:12;;;;;;;;;;;;;;;1.34;67.07;101682.78;3147285;28;20019;-73
2022/03/18 00:59:44;;;;;;;;;;;;;;;1.33;67.21;101678.47;3135661;28;19974;-74
2022/03/18 01:01:15;;;;;;;;;;;;;;;1.31;67.14;101682.72;3144125;28;19921;-75
2022/03/18 01:02:47;;;;;;;;;;;;;;;1.28;67.10;101677.53;3145880;28;19935;-73
2022/03/18 01:04:18;;;;;;;;;;;;;;;1.29;67.20;101681.81;3145106;28;19924;-74
2022/03/18 01:05:50;;;;;;;;;;;;;;;1.30;67.15;101688.66;3146024;28;19920;-74
2022/03/18 01:07:22;;;;;;;;;;;;;;;1.30;67.07;101694.69;3144381;28;19924;-74
2022/03/18 01:08:53;;;;;;;;;;;;;;;1.27;67.21;101689.50;3145801;28;19924;-74
2022/03/18 01:10:25;;;;;;;;;;;;;;;1.30;66.99;101702.41;3145072;28;19925;-73
2022/03/18 01:11:56;;;;;;;;;;;;;;;1.32;67.00;101705.84;3145001;28;19929;-73
2022/03/18 01:13:29;;;;;;;;;;;;;;;1.34;66.96;101698.19;3142072;28;19924;-73
2022/03/18 01:15:00;;;;;;;;;;;;;;;1.34;67.04;101705.91;3142588;28;20298;-73
2022/03/18 01:16:31;;;;;;;;;;;;;;;1.36;67.18;101704.22;3145715;28;20066;-74
2022/03/18 01:18:03;;;;;;;;;;;;;;;1.37;67.05;101705.97;3144743;28;19946;-74
2022/03/18 01:19:34;;;;;;;;;;;;;;;1.39;67.05;101706.88;3145773;28;20352;-73
2022/03/18 01:21:05;;;;;;;;;;;;;;;1.41;67.13;101712.88;3144962;28;20011;-73
2022/03/18 01:22:37;;;;;;;;;;;;;;;1.43;67.21;101707.81;3145097;28;19990;-74
2022/03/18 01:24:10;;;;;;;;;;;;;;;1.45;67.05;101709.59;3144844;28;20463;-74
2022/03/18 01:25:41;;;;;;;;;;;;;;;1.44;67.01;101707.81;3145852;28;19924;-74
2022/03/18 01:27:13;;;;;;;;;;;;;;;1.46;67.14;101711.31;3144874;28;19940;-73
2022/03/18 01:28:46;;;;;;;;;;;;;;;1.49;66.95;101707.94;3140785;28;19921;-73
2022/03/18 01:30:18;;;;;;;;;;;;;;;1.49;67.09;101711.38;3144327;28;19924;-73
2022/03/18 01:31:49;;;;;;;;;;;;;;;1.51;66.93;101719.09;3144959;28;19993;-75
2022/03/18 01:33:21;;;;;;;;;;;;;;;1.50;67.13;101722.50;3145572;28;20392;-73
2022/03/18 01:34:53;;;;;;;;;;;;;;;1.50;67.01;101717.38;3144826;28;20325;-73
2022/03/18 01:36:25;;;;;;;;;;;;;;;1.48;67.08;101712.22;3150816;28;19927;-75
2022/03/18 01:37:56;;;;;;;;;;;;;;;1.50;67.01;101717.38;3136147;28;20290;-75
2022/03/18 01:39:28;;;;;;;;;;;;;;;1.50;66.86;101727.63;3145149;28;19940;-74
2022/03/18 01:40:59;;;;;;;;;;;;;;;1.50;67.08;101719.94;3144603;28;19977;-73
2022/03/18 01:42:31;;;;;;;;;;;;;;;1.51;67.03;101719.09;3141073;28;20033;-72
2022/03/18 01:44:04;;;;;;;;;;;;;;;1.52;66.98;101726.84;3142113;28;19929;-74
2022/03/18 01:45:36;;;;;;;;;;;;;;;1.52;66.92;101721.72;3144012;28;19925;-74
2022/03/18 01:47:08;;;;;;;;;;;;;;;1.50;67.08;101720.81;3144540;28;19924;-72
2022/03/18 01:48:40;;;;;;;;;;;;;;;1.50;66.89;101722.50;3145736;28;19920;-73
2022/03/18 01:50:11;;;;;;;;;;;;;;;1.50;67.11;101719.94;3144632;28;20012;-73
2022/03/18 01:51:43;;;;;;;;;;;;;;;1.51;66.99;101727.69;3145751;28;20316;-73
2022/03/18 01:53:15;;;;;;;;;;;;;;;1.51;67.07;101727.69;3144834;28;19974;-73
2022/03/18 01:54:47;;;;;;;;;;;;;;;1.53;67.09;101728.56;3144712;28;19921;-73
2022/03/18 01:56:19;;;;;;;;;;;;;;;1.56;67.05;101733.78;3142897;28;19934;-74
2022/03/18 01:57:50;;;;;;;;;;;;;;;1.57;66.90;101729.53;3143858;28;19920;-73
2022/03/18 01:59:23;;;;;;;;;;;;;;;1.58;66.97;101742.38;3141902;28;19920;-73
2022/03/18 02:00:55;;;;;;;;;;;;;;;1.59;66.86;101741.53;3144755;28;19921;-74
2022/03/18 02:02:27;;;;;;;;;;;;;;;1.61;66.95;101738.16;3144803;28;19920;-74
2022/03/18 02:03:58;;;;;;;;;;;;;;;1.62;66.83;101743.31;3145768;28;19982;-73
2022/03/18 02:05:29;;;;;;;;;;;;;;;1.63;66.86;101739.94;3145028;28;19979;-73
2022/03/18 02:07:02;;;;;;;;;;;;;;;1.63;66.71;101749.31;3143229;28;20497;-73
2022/03/18 02:08:34;;;;;;;;;;;;;;;1.62;66.67;101751.03;3144498;28;20763;-72
2022/03/18 02:10:06;;;;;;;;;;;;;;;1.59;66.73;101748.38;3143717;28;19928;-74
2022/03/18 02:11:38;;;;;;;;;;;;;;;1.59;66.91;101749.25;3139456;28;19925;-74
2022/03/18 02:13:10;;;;;;;;;;;;;;;1.59;66.83;101746.69;3146569;28;19924;-74
2022/03/18 02:14:44;;;;;;;;;;;;;;;1.57;66.79;101745.81;3144709;28;19985;-74
2022/03/18 02:16:14;;;;;;;;;;;;;;;1.55;66.87;101739.75;3144408;28;20007;-74
2022/03/18 02:17:46;;;;;;;;;;;;;;;1.54;66.77;101740.59;3144875;28;20428;-75
2022/03/18 02:19:17;;;;;;;;;;;;;;;1.54;66.81;101745.72;3144691;28;20459;-74
2022/03/18 02:20:48;;;;;;;;;;;;;;;1.51;66.77;101748.22;3145015;28;19924;-73
2022/03/18 02:22:20;;;;;;;;;;;;;;;1.47;66.80;101754.09;3144810;28;19924;-73
2022/03/18 02:23:53;;;;;;;;;;;;;;;1.45;66.86;101745.53;3144976;28;19921;-73
2022/03/18 02:25:25;;;;;;;;;;;;;;;1.40;66.89;101741.97;3144393;28;19925;-73
2022/03/18 02:26:56;;;;;;;;;;;;;;;1.38;66.70;101748.75;3147027;28;19924;-73
2022/03/18 02:28:27;;;;;;;;;;;;;;;1.37;66.84;101757.31;3147063;28;19950;-73
2022/03/18 02:29:59;;;;;;;;;;;;;;;1.33;66.68;101756.38;3147602;28;19974;-73
2022/03/18 02:31:30;;;;;;;;;;;;;;;1.28;66.76;101757.94;3147106;28;19920;-74
2022/03/18 02:33:02;;;;;;;;;;;;;;;1.28;66.75;101757.94;3147118;28;19942;-73
2022/03/18 02:34:34;;;;;;;;;;;;;;;1.24;66.60;101758.72;3147122;28;19924;-73
2022/03/18 02:36:06;;;;;;;;;;;;;;;1.21;66.53;101758.63;3146826;28;19969;-73
2022/03/18 02:37:37;;;;;;;;;;;;;;;1.18;66.54;101752.53;3144592;28;19978;-73
2022/03/18 02:39:10;;;;;;;;;;;;;;;1.20;66.77;101758.59;3146529;28;20479;-73
2022/03/18 02:40:42;;;;;;;;;;;;;;;1.18;66.63;101757.69;3147708;28;19920;-73
2022/03/18 02:42:14;;;;;;;;;;;;;;;1.15;66.82;101750.75;3146503;28;20385;-73
2022/03/18 02:43:46;;;;;;;;;;;;;;;1.13;66.97;101755.88;3147598;28;19924;-73
2022/03/18 02:45:17;;;;;;;;;;;;;;;1.13;66.98;101755.88;3146697;28;20627;-74
2022/03/18 02:46:49;;;;;;;;;;;;;;;1.12;66.92;101760.97;3147160;28;19924;-74
2022/03/18 02:48:20;;;;;;;;;;;;;;;1.17;66.89;101755.94;3146763;28;20334;-73
2022/03/18 02:49:52;;;;;;;;;;;;;;;1.17;66.88;101758.53;3147117;28;19921;-73
2022/03/18 02:51:24;;;;;;;;;;;;;;;1.14;66.98;101767.00;3134838;28;19924;-74
2022/03/18 02:52:55;;;;;;;;;;;;;;;1.12;67.08;101766.09;3142609;28;19927;-73
2022/03/18 02:54:27;;;;;;;;;;;;;;;1.13;67.11;101765.28;3147337;28;19924;-73
2022/03/18 02:55:59;;;;;;;;;;;;;;;1.13;67.21;101763.56;3144863;28;20460;-73
2022/03/18 02:57:32;;;;;;;;;;;;;;;1.15;67.07;101771.28;3143106;28;20039;-74
2022/03/18 02:59:03;;;;;;;;;;;;;;;1.12;66.95;101766.97;3146586;28;20014;-73
2022/03/18 03:00:35;;;;;;;;;;;;;;;1.08;66.98;101770.28;3147168;28;19920;-73
2022/03/18 03:02:07;;;;;;;;;;;;;;;1.11;67.01;101775.50;3140349;28;19920;-73
2022/03/18 03:03:39;;;;;;;;;;;;;;;1.13;67.27;101775.53;3147429;28;20349;-73
2022/03/18 03:08:48;;;;;;;;;;;;;;;1.10;67.21;101784.03;3144427;28;19928;-74
2022/03/18 03:10:21;;;;;;;;;;;;;;;1.08;67.22;101788.25;3145983;28;19924;-74
2022/03/18 03:11:53;;;;;;;;;;;;;;;1.10;67.29;101784.03;3146209;28;19931;-73
2022/03/18 03:13:25;;;;;;;;;;;;;;;1.08;67.41;101785.69;3146148;28;19928;-73
2022/03/18 03:14:56;;;;;;;;;;;;;;;1.11;67.55;101780.63;3147192;28;19920;-74
2022/03/18 03:16:27;;;;;;;;;;;;;;;1.16;67.35;101783.31;3146848;28;19928;-73
2022/03/18 03:17:59;;;;;;;;;;;;;;;1.13;67.58;101781.53;3150498;28;19923;-73
2022/03/18 03:19:30;;;;;;;;;;;;;;;1.11;67.61;101785.75;3138123;28;20382;-74
2022/03/18 03:21:01;;;;;;;;;;;;;;;1.08;67.67;101790.81;3146614;28;19924;-74
2022/03/18 03:22:32;;;;;;;;;;;;;;;1.08;67.64;101784.81;3146832;28;19990;-74
2022/03/18 03:24:04;;;;;;;;;;;;;;;1.08;67.79;101787.38;3149189;28;20062;-73
2022/03/18 03:25:37;;;;;;;;;;;;;;;1.07;67.69;101789.09;3138282;28;19924;-73
2022/03/18 03:27:08;;;;;;;;;;;;;;;1.10;67.57;101793.44;3144165;28;19946;-73
2022/03/18 03:28:40;;;;;;;;;;;;;;;1.13;67.60;101796.94;3146317;28;19974;-72
2022/03/18 03:30:12;;;;;;;;;;;;;;;1.10;67.70;101799.44;3147016;28;19947;-73
2022/03/18 03:31:43;;;;;;;;;;;;;;;1.11;67.53;101796.03;3146256;28;19931;-73
2022/03/18 03:33:15;;;;;;;;;;;;;;;1.09;67.64;101799.38;3146383;28;19921;-73
2022/03/18 03:34:47;;;;;;;;;;;;;;;1.08;67.60;101807.91;3147061;28;19939;-73
2022/03/18 03:36:19;;;;;;;;;;;;;;;1.06;67.75;101807.84;3137371;28;19987;-72
2022/03/18 03:37:50;;;;;;;;;;;;;;;1.07;67.76;101812.19;3146970;28;19927;-75
2022/03/18 03:39:22;;;;;;;;;;;;;;;1.05;67.86;101808.69;3146298;28;19944;-74
2022/03/18 03:40:55;;;;;;;;;;;;;;;0.65;67.64;101743.53;3147860;28;19924;-73
2022/03/18 03:42:26;;;;;;;;;;;;;;;1.03;67.82;101815.47;3143545;28;19920;-74
2022/03/18 03:43:58;;;;;;;;;;;;;;;1.00;67.76;101815.38;3143831;28;19925;-75
2022/03/18 03:45:28;;;;;;;;;;;;;;;0.99;67.84;101813.66;3147016;28;19920;-74
2022/03/18 03:47:00;;;;;;;;;;;;;;;0.99;67.98;101816.22;3146081;28;19920;-74
2022/03/18 03:48:32;;;;;;;;;;;;;;;0.99;68.05;101812.81;3146412;28;19928;-75
2022/03/18 03:50:02;;;;;;;;;;;;;;;0.97;68.06;101815.31;3140932;28;19924;-74
2022/03/18 03:51:34;;;;;;;;;;;;;;;0.97;67.96;101815.31;3150506;28;20345;-73
2022/03/18 03:53:05;;;;;;;;;;;;;;;0.80;67.94;101784.09;3146125;28;19920;-73
2022/03/18 03:54:37;;;;;;;;;;;;;;;0.99;67.88;101826.50;3149604;28;20008;-73
2022/03/18 03:56:10;;;;;;;;;;;;;;;0.99;67.77;101823.06;3133900;28;20020;-73
2022/03/18 03:57:42;;;;;;;;;;;;;;;1.00;67.90;101825.66;3145577;28;19953;-73
2022/03/18 03:59:13;;;;;;;;;;;;;;;0.98;67.88;101829.91;3145934;28;19943;-73
2022/03/18 04:00:45;;;;;;;;;;;;;;;0.96;67.89;101828.13;3146541;28;19920;-73
2022/03/18 04:02:17;;;;;;;;;;;;;;;0.97;67.99;101827.28;3145983;28;19920;-73
2022/03/18 04:03:48;;;;;;;;;;;;;;;0.96;67.87;101828.97;3143388;28;19931;-73
2022/03/18 04:05:20;;;;;;;;;;;;;;;0.97;67.89;101830.72;3145427;28;20309;-74
2022/03/18 04:06:51;;;;;;;;;;;;;;;0.98;67.88;101837.59;3145954;28;19924;-73
2022/03/18 04:08:23;;;;;;;;;;;;;;;0.98;67.91;101829.91;3151286;28;19928;-74
2022/03/18 04:09:55;;;;;;;;;;;;;;;0.98;67.87;101834.16;3139962;28;20064;-73
2022/03/18 04:11:28;;;;;;;;;;;;;;;0.96;67.91;101838.38;3148130;28;19919;-73
2022/03/18 04:13:00;;;;;;;;;;;;;;;0.94;68.01;101838.31;3138763;28;19921;-73
2022/03/18 04:14:31;;;;;;;;;;;;;;;0.92;68.28;101834.88;3141256;28;19932;-73
2022/03/18 04:16:03;;;;;;;;;;;;;;;0.91;68.36;101833.97;3142351;28;19929;-74
2022/03/18 04:17:38;;;;;;;;;;;;;;;0.94;68.27;101845.16;3144347;28;19924;-73
2022/03/18 04:19:10;;;;;;;;;;;;;;;0.90;68.28;101841.66;3145556;28;19981;-73
2022/03/18 04:20:41;;;;;;;;;;;;;;;0.82;68.55;101841.41;3144180;28;19920;-73
2022/03/18 04:22:13;;;;;;;;;;;;;;;0.81;68.57;101837.13;3146693;28;20321;-73
2022/03/18 04:23:44;;;;;;;;;;;;;;;0.78;68.53;101841.31;3145386;28;19928;-73
2022/03/18 04:25:15;;;;;;;;;;;;;;;0.76;68.60;101840.41;3146381;28;19920;-73
2022/03/18 04:26:48;;;;;;;;;;;;;;;0.72;68.96;101843.72;3145500;28;19992;-74
2022/03/18 04:28:20;;;;;;;;;;;;;;;0.68;68.90;101842.72;3141726;28;19993;-73
2022/03/18 04:29:50;;;;;;;;;;;;;;;0.46;68.89;101810.50;3145540;28;19924;-73
2022/03/18 04:31:23;;;;;;;;;;;;;;;0.30;69.25;101805.78;3143694;28;20633;-72
2022/03/18 04:32:54;;;;;;;;;;;;;;;0.55;69.50;101846.66;3145408;28;20278;-72
2022/03/18 04:34:25;;;;;;;;;;;;;;;0.52;69.51;101854.25;3145507;28;20007;-73
2022/03/18 04:35:57;;;;;;;;;;;;;;;0.50;69.67;101855.91;3148149;28;20298;-72
2022/03/18 04:37:28;;;;;;;;;;;;;;;0.50;69.53;101853.34;3141528;28;19954;-71
2022/03/18 04:39:01;;;;;;;;;;;;;;;0.50;69.40;101855.91;3145775;28;19954;-72
2022/03/18 04:40:33;;;;;;;;;;;;;;;0.55;69.44;101861.16;3145214;28;19924;-72
2022/03/18 04:42:05;;;;;;;;;;;;;;;0.53;69.78;101860.25;3146347;28;19931;-71
2022/03/18 04:43:36;;;;;;;;;;;;;;;0.51;69.92;101867.91;3146018;28;19967;-73
2022/03/18 04:45:09;;;;;;;;;;;;;;;0.49;70.14;101863.56;3144238;28;19924;-73
2022/03/18 04:46:40;;;;;;;;;;;;;;;0.48;70.16;101862.69;3135972;28;20275;-73
2022/03/18 04:48:12;;;;;;;;;;;;;;;0.53;70.00;101865.38;3138221;28;19925;-74
2022/03/18 04:49:44;;;;;;;;;;;;;;;0.53;70.14;101871.38;3142079;28;19982;-73
2022/03/18 04:51:15;;;;;;;;;;;;;;;0.56;70.14;101871.50;3145229;28;20354;-73
2022/03/18 04:52:47;;;;;;;;;;;;;;;0.54;70.50;101873.13;3145556;28;19921;-73
2022/03/18 04:54:19;;;;;;;;;;;;;;;0.53;70.73;101876.50;3145516;28;20475;-73
2022/03/18 04:55:50;;;;;;;;;;;;;;;0.52;70.55;101877.34;3146067;28;20246;-74
2022/03/18 04:57:22;;;;;;;;;;;;;;;0.52;70.60;101873.91;3144651;28;19920;-74
2022/03/18 04:58:54;;;;;;;;;;;;;;;0.51;70.79;101880.72;3145778;28;20432;-74
2022/03/18 05:00:25;;;;;;;;;;;;;;;0.53;70.73;101876.50;3137759;28;19944;-73
2022/03/18 05:01:56;;;;;;;;;;;;;;;0.53;70.89;101883.31;3140143;28;19979;-74
2022/03/18 05:03:27;;;;;;;;;;;;;;;0.56;70.69;101884.31;3145374;28;19924;-73
2022/03/18 05:04:59;;;;;;;;;;;;;;;0.59;70.86;101880.94;3151994;28;19920;-74
2022/03/18 05:06:31;;;;;;;;;;;;;;;0.61;70.64;101879.28;3139499;28;19920;-74
2022/03/18 05:08:02;;;;;;;;;;;;;;;0.65;70.53;101886.22;3138660;28;20698;-74
2022/03/18 05:09:33;;;;;;;;;;;;;;;0.67;70.77;101879.47;3145367;28;19924;-73
2022/03/18 05:11:04;;;;;;;;;;;;;;;0.75;70.42;101887.41;3144381;28;19924;-74
2022/03/18 05:12:37;;;;;;;;;;;;;;;0.81;70.48;101885.84;3145551;28;19927;-74
2022/03/18 05:14:09;;;;;;;;;;;;;;;0.87;70.19;101880.03;3140575;28;19920;-73
2022/03/18 05:15:41;;;;;;;;;;;;;;;0.92;70.18;101881.03;3145317;28;19947;-73
2022/03/18 05:17:13;;;;;;;;;;;;;;;0.96;70.23;101890.56;3139305;28;19932;-74
2022/03/18 05:18:44;;;;;;;;;;;;;;;1.00;70.02;101884.66;3144936;28;19920;-74
2022/03/18 05:20:16;;;;;;;;;;;;;;;1.06;69.98;101889.97;3145026;28;19920;-75
2022/03/18 05:21:47;;;;;;;;;;;;;;;1.12;69.81;101894.38;3145036;28;19924;-75
2022/03/18 05:23:19;;;;;;;;;;;;;;;1.17;69.51;101890.25;3145335;28;19927;-75
2022/03/18 05:24:51;;;;;;;;;;;;;;;1.22;69.57;101896.41;3144785;28;19925;-75
2022/03/18 05:26:22;;;;;;;;;;;;;;;1.25;69.60;101895.63;3145227;28;19940;-75
2022/03/18 05:27:55;;;;;;;;;;;;;;;1.27;69.30;101894.81;3140538;28;19943;-75
2022/03/18 05:29:26;;;;;;;;;;;;;;;1.34;69.25;101898.41;3144249;28;19935;-74
2022/03/18 05:30:58;;;;;;;;;;;;;;;1.39;69.15;101899.41;3145405;28;19924;-74
2022/03/18 05:32:29;;;;;;;;;;;;;;;1.45;68.81;101904.72;3145383;28;20019;-74
2022/03/18 05:34:01;;;;;;;;;;;;;;;1.50;68.66;101904.81;3144925;28;19928;-73
2022/03/18 05:35:33;;;;;;;;;;;;;;;1.52;68.62;101904.03;3145930;28;19924;-74
2022/03/18 05:37:06;;;;;;;;;;;;;;;1.56;68.45;101907.53;3144689;28;20077;-74
2022/03/18 05:38:38;;;;;;;;;;;;;;;1.62;68.43;101911.94;3144608;28;19931;-75
2022/03/18 05:40:10;;;;;;;;;;;;;;;1.68;68.25;101912.09;3140338;28;20262;-73
2022/03/18 05:41:43;;;;;;;;;;;;;;;1.76;68.12;101915.75;3140201;28;19993;-72
2022/03/18 05:43:16;;;;;;;;;;;;;;;1.79;67.62;101918.38;3145497;28;20317;-72
2022/03/18 05:44:47;;;;;;;;;;;;;;;1.83;67.71;101915.06;3144714;28;19954;-73
2022/03/18 05:46:19;;;;;;;;;;;;;;;1.91;67.31;101920.38;3137082;28;19920;-73
2022/03/18 05:47:50;;;;;;;;;;;;;;;1.97;67.25;101925.66;3136866;28;19920;-72
2022/03/18 05:49:22;;;;;;;;;;;;;;;2.03;66.94;101928.38;3145013;28;19928;-72
2022/03/18 05:50:54;;;;;;;;;;;;;;;2.10;66.78;101927.72;3144720;28;19921;-72
2022/03/18 05:52:25;;;;;;;;;;;;;;;2.17;66.78;101932.16;3145685;28;19924;-71
2022/03/18 05:53:57;;;;;;;;;;;;;;;2.22;66.51;101935.72;3144559;28;19924;-73
2022/03/18 05:56:52;;;;;;;;;;;;;;;2.28;66.33;101940.13;3140746;28;19924;-72
2022/03/18 05:57:23;;;;;;;;;;;;;;;2.30;65.80;101942.72;3144157;28;20043;-72
2022/03/18 05:58:55;;;;;;;;;;;;;;;2.31;65.66;101939.31;3147167;28;19921;-73
2022/03/18 06:00:26;;;;;;;;;;;;;;;2.36;65.62;101941.16;3147628;28;19921;-72
2022/03/18 06:01:58;;;;;;;;;;;;;;;2.41;65.35;101946.41;3147207;28;19924;-72
2022/03/18 06:03:30;;;;;;;;;;;;;;;2.48;65.18;101943.13;3147936;28;19924;-73
2022/03/18 06:05:02;;;;;;;;;;;;;;;2.58;65.12;101952.81;3147258;28;19935;-72
2022/03/18 06:06:33;;;;;;;;;;;;;;;2.66;64.99;101945.22;3147482;28;19924;-72
2022/03/18 06:11:52;;;;;;;;;;;;;;;4.19;63.44;101947.22;3144570;28;19920;-72
2022/03/18 06:13:23;;;;;;;;;;;;;;;5.80;62.17;101944.03;3144350;28;20382;-73
2022/03/18 06:14:56;;;;;;;;;;;;;;;7.30;60.66;101942.31;3146738;28;19943;-72
2022/03/18 06:16:27;;;;;;;;;;;;;;;8.78;57.79;101936.22;3147398;28;20397;-75
2022/03/18 06:17:58;;;;;;;;;;;;;;;10.15;55.23;101941.44;3147085;28;20074;-76
2022/03/18 06:19:31;;;;;;;;;;;;;;;11.47;53.74;101944.22;3147134;28;19924;-77
2022/03/18 06:21:05;;;;;;;;;;;;;;;12.66;50.91;101946.56;3145296;28;19928;-75
2022/03/18 06:22:37;;;;;;;;;;;;;;;13.80;48.39;101945.00;3145885;28;19993;-68
2022/03/18 06:24:09;;;;;;;;;;;;;;;14.75;45.96;101943.38;3146695;28;19970;-78
2022/03/18 06:25:41;;;;;;;;;;;;;;;15.61;43.70;101932.91;3146540;28;19928;-77
2022/03/18 06:27:13;;;;;;;;;;;;;;;16.42;40.64;101931.13;3145301;28;19935;-78
2022/03/18 06:28:43;;;;;;;;;;;;;;;17.11;40.09;101933.84;3146151;28;19920;-70
2022/03/18 06:30:16;;;;;;;;;;;;;;;17.80;39.15;101936.38;3146114;28;19935;-74
2022/03/18 06:31:48;;;;;;;;;;;;;;;18.53;37.66;101940.28;3146176;28;19947;-77
2022/03/18 06:33:20;;;;;;;;;;;;;;;19.27;36.54;101938.66;3145582;28;20014;-77
2022/03/18 06:34:51;;;;;;;;;;;;;;;19.97;34.17;101937.03;3145943;28;19986;-76
2022/03/18 06:36:22;;;;;;;;;;;;;;;20.53;32.70;101942.09;3145495;28;19932;-77
2022/03/18 06:37:54;;;;;;;;;;;;;;;21.01;31.06;101940.44;3145688;28;19928;-77
2022/03/18 06:39:26;;;;;;;;;;;;;;;21.45;30.25;101937.97;3145874;28;20008;-76
2022/03/18 06:40:57;;;;;;;;;;;;;;;21.81;29.32;101945.59;3145482;28;19924;-70
2022/03/18 06:42:29;;;;;;;;;;;;;;;22.25;28.77;101947.44;3146074;28;19927;-70
2022/03/18 06:44:00;;;;;;;;;;;;;;;22.59;27.86;101945.38;3144909;28;20369;-70
2022/03/18 06:45:33;;;;;;;;;;;;;;;22.96;27.62;101942.28;3145424;28;21333;-70
2022/03/18 06:47:05;;;;;;;;;;;;;;;23.35;26.91;101942.34;3145245;28;19920;-70
2022/03/18 06:48:36;;;;;;;;;;;;;;;23.62;25.50;101944.16;3145560;28;19920;-72
2022/03/18 06:50:09;;;;;;;;;;;;;;;23.75;25.62;101950.41;3145362;28;19924;-71
2022/03/18 06:51:41;;;;;;;;;;;;;;;23.92;25.27;101948.41;3145935;28;19920;-72
2022/03/18 06:53:11;;;;;;;;;;;;;;;24.01;23.93;101953.97;3145535;28;19924;-79
2022/03/18 06:54:43;;;;;;;;;;;;;;;24.13;23.59;101954.09;3146689;28;20073;-79
2022/03/18 06:56:15;;;;;;;;;;;;;;;24.23;24.04;101950.69;3145518;28;19967;-79
2022/03/18 06:57:46;;;;;;;;;;;;;;;24.33;23.25;101952.72;3145417;28;19928;-81
2022/03/18 06:59:18;;;;;;;;;;;;;;;24.36;22.69;101952.50;3144840;28;20381;-81
2022/03/18 07:00:51;;;;;;;;;;;;;;;24.39;22.38;101958.47;3146112;28;19982;-81
2022/03/18 07:02:24;;;;;;;;;;;;;;;24.54;22.40;101947.75;3145669;28;19978;-80
2022/03/18 07:03:56;;;;;;;;;;;;;;;24.72;21.97;101957.09;3145201;28;19981;-80
2022/03/18 07:05:27;;;;;;;;;;;;;;;24.87;21.09;101955.16;3146375;28;19998;-79
2022/03/18 07:06:59;;;;;;;;;;;;;;;24.93;20.85;101966.22;3146011;28;20326;-80
2022/03/18 07:08:31;;;;;;;;;;;;;;;25.00;21.07;101965.81;3146017;28;19924;-80
2022/03/18 07:10:02;;;;;;;;;;;;;;;24.95;20.65;101966.97;3145282;28;20262;-79
2022/03/18 07:11:34;;;;;;;;;;;;;;;24.84;19.80;101966.88;3144874;28;19924;-77
2022/03/18 07:13:06;;;;;;;;;;;;;;;24.68;20.36;101971.63;3146583;28;20025;-69
2022/03/18 07:14:37;;;;;;;;;;;;;;;24.57;20.60;101974.16;3145764;28;19935;-70
2022/03/18 07:17:59;;;;;;;;;;;;;;;24.01;20.16;101964.59;3142162;28;19920;-69
2022/03/18 07:19:33;;;;;;;;;;;;;;;23.75;20.03;101974.34;3145527;28;19927;-72
2022/03/18 07:21:04;;;;;;;;;;;;;;;22.86;19.85;101969.34;3144764;28;19974;-70
2022/03/18 07:22:36;;;;;;;;;;;;;;;22.78;20.67;101971.66;3144782;28;20304;-65
2022/03/18 07:24:07;;;;;;;;;;;;;;;22.75;20.91;101958.56;3146437;28;20013;-71
2022/03/18 07:25:40;;;;;;;;;;;;;;;22.65;20.69;101968.88;3145928;28;19948;-72
2022/03/18 07:27:12;;;;;;;;;;;;;;;22.41;20.74;101975.72;3143152;28;20313;-71
2022/03/18 07:28:43;;;;;;;;;;;;;;;22.07;20.58;101979.50;3144886;28;19931;-71
2022/03/18 07:30:15;;;;;;;;;;;;;;;21.28;20.71;101969.84;3145350;28;19998;-69
2022/03/18 07:31:48;;;;;;;;;;;;;;;20.98;21.06;101972.38;3145457;28;20386;-71
2022/03/18 07:33:20;;;;;;;;;;;;;;;20.60;21.56;101976.13;3142842;28;19924;-70
2022/03/18 07:34:51;;;;;;;;;;;;;;;20.32;21.72;101954.66;3146409;28;19924;-70
2022/03/18 07:36:23;;;;;;;;;;;;;;;20.25;21.87;101966.50;3144536;28;19985;-64
2022/03/18 07:37:55;;;;;;;;;;;;;;;19.99;21.60;101972.19;3144526;28;19924;-68
2022/03/18 07:39:26;;;;;;;;;;;;;;;19.72;21.59;101976.19;3147756;28;20411;-68
2022/03/18 07:40:58;;;;;;;;;;;;;;;19.41;21.69;101972.34;3145299;28;19924;-68
2022/03/18 07:42:39;;;;;;;;;;;;;;;19.10;21.95;101981.69;3145964;28;19920;-67
2022/03/18 07:44:11;;;;;;;;;;;;;;;18.81;22.37;101990.97;3146442;28;20451;-66
2022/03/18 07:45:43;;;;;;;;;;;;;;;18.62;22.30;101993.50;3146002;28;20482;-73
2022/03/18 07:47:16;;;;;;;;;;;;;;;18.38;22.25;101990.16;3146634;28;19973;-68
2022/03/18 07:48:47;;;;;;;;;;;;;;;18.05;21.88;101996.88;3140103;28;19963;-67
2022/03/18 07:50:22;;;;;;;;;;;;;;;17.32;22.00;101996.22;3143306;28;20039;-67
2022/03/18 07:51:54;;;;;;;;;;;;;;;16.88;22.42;101990.84;3151276;28;19982;-65
2022/03/18 07:53:25;;;;;;;;;;;;;;;16.49;22.39;101998.34;3142719;28;19920;-65
2022/03/18 07:54:57;;;;;;;;;;;;;;;16.19;22.68;101984.50;3146569;28;19981;-64
2022/03/18 07:56:30;;;;;;;;;;;;;;;16.00;22.94;101989.50;3145777;28;19927;-72
2022/03/18 07:58:01;;;;;;;;;;;;;;;15.68;23.13;101992.25;3146563;28;19920;-69
2022/03/18 07:59:33;;;;;;;;;;;;;;;15.42;23.31;101981.66;3146084;28;20348;-68
2022/03/18 08:01:06;;;;;;;;;;;;;;;15.13;23.50;101991.28;3151490;28;20286;-68
2022/03/18 08:02:39;;;;;;;;;;;;;;;14.88;23.56;101985.88;3143691;28;19999;-65
2022/03/18 08:04:12;;;;;;;;;;;;;;;14.55;23.82;101993.78;3145749;28;19978;-65
2022/03/18 08:05:44;;;;;;;;;;;;;;;13.87;23.66;101999.81;3145994;28;20397;-68
2022/03/18 08:07:16;;;;;;;;;;;;;;;13.18;24.16;101997.84;3145441;28;20354;-69
2022/03/18 08:08:47;;;;;;;;;;;;;;;12.38;24.92;101934.03;3145833;28;19927;-67
2022/03/18 08:10:19;;;;;;;;;;;;;;;12.28;24.95;101997.81;3145744;28;19974;-68